createdAt,value
2019-03-21T00:00:57.490Z,3.50
2019-03-21T00:03:24.909Z,3.40
2019-03-21T00:05:52.204Z,2.87
2019-03-21T00:08:19.485Z,3.57
2019-03-21T00:11:13.459Z,3.30
2019-03-21T00:13:40.864Z,2.83
2019-03-21T00:16:10.474Z,3.40
2019-03-21T00:18:37.748Z,3.20
2019-03-21T00:21:05.040Z,3.43
2019-03-21T00:23:32.439Z,3.20
2019-03-21T00:25:59.698Z,2.80
2019-03-21T00:28:26.945Z,2.87
2019-03-21T00:30:54.228Z,3.07
2019-03-21T00:33:21.522Z,3.60
2019-03-21T00:35:48.804Z,3.30
2019-03-21T00:38:16.158Z,3.47
2019-03-21T00:40:44.137Z,3.93
2019-03-21T00:43:12.223Z,3.00
2019-03-21T00:45:39.502Z,4.47
2019-03-21T00:48:09.411Z,3.20
2019-03-21T00:50:36.699Z,3.40
2019-03-21T00:53:04.053Z,3.13
2019-03-21T00:55:32.390Z,3.00
2019-03-21T00:57:59.659Z,3.50
2019-03-21T01:00:32.954Z,3.83
2019-03-21T01:03:00.195Z,3.80
2019-03-21T01:05:29.819Z,3.80
2019-03-21T01:07:57.191Z,3.47
2019-03-21T01:10:24.687Z,2.77
2019-03-21T01:12:51.996Z,3.00
2019-03-21T01:15:19.279Z,3.17
2019-03-21T01:17:46.552Z,2.93
2019-03-21T01:20:17.044Z,3.20
2019-03-21T01:22:44.384Z,2.80
2019-03-21T01:25:15.391Z,3.00
2019-03-21T01:27:43.551Z,3.00
2019-03-21T01:30:13.907Z,3.13
2019-03-21T01:32:41.124Z,3.30
2019-03-21T01:35:08.446Z,3.20
2019-03-21T01:37:35.952Z,3.40
2019-03-21T01:40:05.730Z,3.00
2019-03-21T01:42:34.690Z,3.20
2019-03-21T01:45:01.981Z,3.47
2019-03-21T01:47:29.234Z,3.80
2019-03-21T01:49:56.512Z,4.00
2019-03-21T01:52:23.831Z,3.67
2019-03-21T01:54:51.100Z,3.70
2019-03-21T01:57:18.792Z,3.43
2019-03-21T01:59:46.030Z,3.33
2019-03-21T02:02:13.316Z,3.03
2019-03-21T02:04:40.697Z,3.63
2019-03-21T02:07:07.976Z,3.80
2019-03-21T02:09:35.400Z,3.50
2019-03-21T02:12:02.781Z,3.37
2019-03-21T02:14:30.050Z,3.70
2019-03-21T02:16:57.408Z,3.90
2019-03-21T02:19:24.684Z,3.77
2019-03-21T02:21:51.989Z,4.70
2019-03-21T02:24:20.203Z,5.77
2019-03-21T02:26:47.774Z,5.27
2019-03-21T02:29:15.173Z,4.23
2019-03-21T02:31:42.449Z,3.40
2019-03-21T02:34:09.682Z,3.20
2019-03-21T02:36:36.989Z,3.10
2019-03-21T02:39:06.102Z,2.80
2019-03-21T02:41:33.712Z,2.70
2019-03-21T02:44:00.937Z,3.27
2019-03-21T02:46:28.203Z,2.97
2019-03-21T02:48:55.996Z,2.90
2019-03-21T02:51:23.331Z,3.00
2019-03-21T02:53:50.974Z,3.13
2019-03-21T02:56:18.740Z,2.83
2019-03-21T02:58:46.019Z,2.87
2019-03-21T03:01:13.641Z,3.00
2019-03-21T03:03:41.108Z,2.60
2019-03-21T03:06:08.427Z,3.23
2019-03-21T03:08:35.696Z,3.10
2019-03-21T03:11:03.638Z,3.10
2019-03-21T03:13:30.908Z,3.10
2019-03-21T03:16:00.327Z,3.00
2019-03-21T03:18:27.879Z,2.93
2019-03-21T03:20:55.550Z,2.93
2019-03-21T03:23:22.789Z,3.20
2019-03-21T03:25:51.180Z,3.07
2019-03-21T03:28:20.666Z,3.40
2019-03-21T03:30:48.157Z,2.83
2019-03-21T03:33:15.484Z,3.17
2019-03-21T03:35:42.765Z,3.37
2019-03-21T03:38:10.029Z,3.50
2019-03-21T03:40:40.423Z,3.43
2019-03-21T03:43:08.303Z,2.73
2019-03-21T03:45:37.970Z,3.13
2019-03-21T03:48:04.850Z,3.17
2019-03-21T03:50:32.272Z,3.30
2019-03-21T03:52:59.578Z,3.83
2019-03-21T03:55:26.895Z,5.03
2019-03-21T03:57:55.646Z,2.70
2019-03-21T04:00:23.143Z,3.00
2019-03-21T04:02:51.106Z,2.90
2019-03-21T04:05:18.555Z,3.13
2019-03-21T04:07:45.858Z,3.13
2019-03-21T04:10:16.241Z,3.00
2019-03-21T04:12:43.638Z,3.10
2019-03-21T04:15:11.145Z,2.87
2019-03-21T04:17:38.384Z,3.37
2019-03-21T04:20:07.709Z,3.30
2019-03-21T04:22:34.963Z,3.37
2019-03-21T04:25:02.362Z,2.90
2019-03-21T04:27:29.630Z,3.33
2019-03-21T04:29:56.860Z,3.20
2019-03-21T04:32:24.132Z,2.97
2019-03-21T04:34:51.467Z,3.40
2019-03-21T04:37:19.100Z,3.37
2019-03-21T04:39:46.479Z,3.30
2019-03-21T04:42:13.737Z,3.67
2019-03-21T04:44:41.167Z,3.43
2019-03-21T04:47:08.417Z,3.53
2019-03-21T04:49:35.815Z,3.40
2019-03-21T04:52:03.866Z,3.73
2019-03-21T04:54:31.132Z,3.07
2019-03-21T04:56:58.388Z,3.43
2019-03-21T04:59:25.641Z,3.27
2019-03-21T05:01:52.886Z,3.20
2019-03-21T05:04:20.134Z,2.70
2019-03-21T05:06:47.708Z,2.90
2019-03-21T05:09:17.587Z,3.27
2019-03-21T05:11:44.952Z,3.53
2019-03-21T05:14:13.387Z,3.40
2019-03-21T05:16:40.667Z,3.30
2019-03-21T05:19:08.029Z,3.40
2019-03-21T05:21:35.307Z,3.10
2019-03-21T05:24:02.821Z,3.07
2019-03-21T05:26:30.079Z,2.90
2019-03-21T05:28:57.350Z,3.80
2019-03-21T05:31:27.857Z,2.90
2019-03-21T05:33:55.210Z,3.20
2019-03-21T05:36:22.506Z,2.97
2019-03-21T05:38:49.777Z,3.50
2019-03-21T05:41:17.053Z,3.37
2019-03-21T05:43:48.101Z,3.20
2019-03-21T05:46:26.036Z,4.47
2019-03-21T05:48:48.468Z,5.93
2019-03-21T05:51:18.074Z,4.33
2019-03-21T05:53:46.132Z,3.40
2019-03-21T05:56:13.439Z,3.10
2019-03-21T05:58:40.712Z,2.80
2019-03-21T06:01:09.298Z,4.37
2019-03-21T06:03:49.577Z,3.67
2019-03-21T06:06:23.882Z,3.80
2019-03-21T06:08:51.302Z,3.33
2019-03-21T06:11:18.587Z,3.40
2019-03-21T06:13:45.971Z,3.70
2019-03-21T06:16:13.333Z,3.60
2019-03-21T06:19:31.607Z,3.03
2019-03-21T06:22:17.046Z,3.23
2019-03-21T06:25:10.490Z,3.73
2019-03-21T06:27:37.780Z,2.83
2019-03-21T06:30:07.040Z,2.90
2019-03-21T06:32:34.311Z,3.33
2019-03-21T06:35:03.620Z,2.90
2019-03-21T06:37:30.887Z,4.40
2019-03-21T06:40:01.033Z,5.70
2019-03-21T06:42:28.429Z,3.80
2019-03-21T06:44:55.814Z,3.50
2019-03-21T06:47:23.121Z,5.30
2019-03-21T06:49:50.631Z,3.00
2019-03-21T06:52:23.408Z,3.70
2019-03-21T06:54:50.907Z,3.63
2019-03-21T06:57:18.533Z,3.60
2019-03-21T06:59:45.831Z,4.00
2019-03-21T07:02:13.106Z,3.27
2019-03-21T07:04:43.801Z,3.13
2019-03-21T07:07:11.307Z,3.17
2019-03-21T07:09:38.607Z,3.30
2019-03-21T07:12:09.155Z,3.50
2019-03-21T07:14:36.391Z,3.40
2019-03-21T07:17:05.651Z,3.73
2019-03-21T07:19:35.230Z,3.83
2019-03-21T07:22:02.508Z,3.60
2019-03-21T07:24:30.171Z,4.57
2019-03-21T07:26:57.452Z,2.90
2019-03-21T07:29:24.698Z,3.60
2019-03-21T07:31:52.051Z,3.90
2019-03-21T07:34:19.345Z,4.00
2019-03-21T07:36:48.231Z,4.40
2019-03-21T07:39:15.505Z,4.17
2019-03-21T07:41:42.878Z,3.43
2019-03-21T07:44:10.130Z,3.80
2019-03-21T07:46:37.445Z,3.67
2019-03-21T07:49:04.759Z,3.50
2019-03-21T07:51:32.031Z,3.60
2019-03-21T07:53:59.715Z,3.90
2019-03-21T07:56:27.147Z,3.83
2019-03-21T07:58:54.541Z,4.10
2019-03-21T08:01:21.832Z,4.80
2019-03-21T08:03:49.151Z,4.57
2019-03-21T08:06:16.529Z,4.27
2019-03-21T08:08:43.798Z,4.47
2019-03-21T08:11:18.435Z,4.83
2019-03-21T08:13:46.108Z,5.30
2019-03-21T08:16:13.381Z,5.20
2019-03-21T08:18:45.192Z,4.70
2019-03-21T08:21:13.097Z,4.70
2019-03-21T08:23:40.475Z,5.27
2019-03-21T08:26:07.921Z,5.13
2019-03-21T08:28:35.814Z,5.53
2019-03-21T08:31:15.997Z,5.67
2019-03-21T08:33:44.150Z,5.30
2019-03-21T08:36:16.827Z,6.43
2019-03-21T08:38:44.161Z,5.23
2019-03-21T08:41:13.465Z,4.63
2019-03-21T08:43:40.941Z,6.70
2019-03-21T08:46:08.647Z,6.10
2019-03-21T08:48:36.047Z,6.40
2019-03-21T08:51:08.092Z,6.80
2019-03-21T08:53:32.644Z,6.43
2019-03-21T08:55:59.908Z,6.40
2019-03-21T08:58:27.229Z,6.80
2019-03-21T09:00:54.520Z,9.30
2019-03-21T09:03:21.775Z,5.87
2019-03-21T09:05:51.742Z,5.20
2019-03-21T09:08:19.054Z,6.07
2019-03-21T09:10:46.347Z,5.23
2019-03-21T09:13:13.847Z,3.93
2019-03-21T09:15:41.082Z,5.60
2019-03-21T09:18:08.413Z,4.10
2019-03-21T09:20:35.798Z,4.00
2019-03-21T09:23:03.118Z,2.87
2019-03-21T09:25:30.341Z,3.30
2019-03-21T09:28:02.469Z,3.27
2019-03-21T09:30:26.745Z,2.43
2019-03-21T09:32:56.030Z,2.20
2019-03-21T09:35:23.341Z,3.00
2019-03-21T09:37:52.669Z,2.73
2019-03-21T09:40:19.932Z,2.07
2019-03-21T09:42:47.232Z,2.43
2019-03-21T09:45:14.486Z,2.93
2019-03-21T09:47:43.701Z,2.10
2019-03-21T09:50:14.980Z,2.37
2019-03-21T09:52:44.127Z,2.87
2019-03-21T09:55:11.480Z,2.50
2019-03-21T09:57:38.767Z,2.17
2019-03-21T10:00:06.163Z,2.00
2019-03-21T10:02:33.513Z,1.87
2019-03-21T10:05:00.756Z,2.30
2019-03-21T10:07:28.017Z,2.37
2019-03-21T10:09:55.323Z,2.10
2019-03-21T10:12:22.719Z,2.40
2019-03-21T10:14:50.013Z,2.20
2019-03-21T10:17:17.285Z,2.33
2019-03-21T10:19:44.510Z,2.67
2019-03-21T10:22:11.824Z,2.73
2019-03-21T10:24:41.388Z,4.13
2019-03-21T10:27:08.675Z,3.10
2019-03-21T10:29:35.959Z,2.00
2019-03-21T10:32:13.975Z,2.00
2019-03-21T10:34:32.840Z,1.67
2019-03-21T10:37:00.469Z,1.80
2019-03-21T10:39:27.868Z,1.90
2019-03-21T10:41:55.352Z,1.77
2019-03-21T10:44:27.057Z,1.70
2019-03-21T10:46:54.336Z,1.83
2019-03-21T10:49:21.813Z,1.37
2019-03-21T10:51:54.792Z,2.20
2019-03-21T10:54:18.434Z,2.00
2019-03-21T10:56:46.015Z,1.93
2019-03-21T10:59:13.448Z,1.77
2019-03-21T11:01:40.929Z,1.40
2019-03-21T11:04:08.662Z,2.20
2019-03-21T11:06:36.045Z,3.10
2019-03-21T11:09:07.060Z,1.70
2019-03-21T11:11:34.292Z,2.10
2019-03-21T11:14:03.030Z,2.00
2019-03-21T11:16:31.492Z,2.23
2019-03-21T11:18:59.033Z,2.30
2019-03-21T11:21:26.497Z,1.60
2019-03-21T11:23:54.018Z,2.77
2019-03-21T11:26:21.588Z,1.63
2019-03-21T11:28:48.931Z,1.77
2019-03-21T11:31:16.210Z,2.40
2019-03-21T11:33:43.592Z,2.90
2019-03-21T11:36:10.821Z,2.63
2019-03-21T11:38:39.998Z,2.60
2019-03-21T11:41:07.260Z,1.80
2019-03-21T11:43:34.557Z,2.03
2019-03-21T11:46:01.938Z,2.57
2019-03-21T11:48:32.178Z,2.23
2019-03-21T11:51:02.797Z,1.80
2019-03-21T11:53:30.036Z,2.23
2019-03-21T11:55:57.451Z,2.10
2019-03-21T11:58:24.841Z,2.20
2019-03-21T12:00:54.586Z,1.90
2019-03-21T12:03:24.223Z,1.87
2019-03-21T12:05:51.236Z,2.23
2019-03-21T12:08:18.509Z,2.40
2019-03-21T12:10:45.843Z,2.73
2019-03-21T12:13:13.363Z,2.50
2019-03-21T12:15:43.391Z,2.33
2019-03-21T12:18:10.654Z,2.70
2019-03-21T12:20:40.732Z,2.80
2019-03-21T12:23:08.082Z,2.27
2019-03-21T12:25:35.820Z,2.60
2019-03-21T12:28:03.145Z,2.60
2019-03-21T12:30:38.730Z,2.10
2019-03-21T12:33:08.111Z,2.47
2019-03-21T12:35:35.502Z,3.13
2019-03-21T12:38:03.256Z,2.60
2019-03-21T12:40:30.739Z,2.70
2019-03-21T12:43:00.937Z,3.30
2019-03-21T12:45:29.489Z,2.70
2019-03-21T12:47:59.317Z,3.40
2019-03-21T12:50:28.813Z,2.97
2019-03-21T12:52:55.988Z,3.33
2019-03-21T12:55:37.400Z,4.20
2019-03-21T12:58:04.711Z,4.70
2019-03-21T13:00:42.126Z,3.00
2019-03-21T13:03:09.966Z,3.53
2019-03-21T13:05:37.718Z,3.60
2019-03-21T13:08:05.087Z,4.10
2019-03-21T13:10:32.386Z,4.10
2019-03-21T13:13:01.908Z,3.80
2019-03-21T13:15:30.378Z,4.20
2019-03-21T13:18:00.241Z,3.90
2019-03-21T13:20:27.306Z,4.20
2019-03-21T13:22:54.591Z,4.07
2019-03-21T13:25:21.903Z,4.90
2019-03-21T13:27:51.724Z,4.40
2019-03-21T13:30:19.029Z,4.23
2019-03-21T13:32:48.975Z,4.37
2019-03-21T13:35:16.085Z,5.60
2019-03-21T13:37:43.588Z,4.20
2019-03-21T13:40:10.980Z,4.17
2019-03-21T13:42:38.344Z,4.80
2019-03-21T13:45:05.962Z,3.80
2019-03-21T13:47:33.216Z,4.63
2019-03-21T13:50:02.736Z,6.87
2019-03-21T13:52:34.378Z,4.27
2019-03-21T13:55:04.339Z,4.80
2019-03-21T13:57:32.150Z,4.60
2019-03-21T13:59:59.744Z,4.50
2019-03-21T14:02:27.104Z,4.97
2019-03-21T14:04:57.194Z,4.37
2019-03-21T14:07:34.684Z,4.30
2019-03-21T14:10:02.406Z,4.70
2019-03-21T14:12:29.850Z,4.50
2019-03-21T14:15:08.236Z,4.10
2019-03-21T14:17:36.277Z,4.40
2019-03-21T14:20:04.590Z,4.30
2019-03-21T14:22:32.226Z,5.77
2019-03-21T14:24:59.577Z,5.43
2019-03-21T14:27:26.851Z,5.20
2019-03-21T14:30:01.228Z,5.53
2019-03-21T14:32:23.701Z,4.77
2019-03-21T14:34:51.006Z,5.40
2019-03-21T14:37:19.516Z,5.27
2019-03-21T14:39:46.814Z,4.90
2019-03-21T14:42:16.506Z,4.77
2019-03-21T14:44:48.197Z,5.87
2019-03-21T14:47:15.015Z,5.73
2019-03-21T14:49:42.289Z,6.10
2019-03-21T14:52:09.601Z,6.53
2019-03-21T14:54:39.717Z,6.07
2019-03-21T14:57:12.179Z,7.10
2019-03-21T14:59:42.038Z,6.10
2019-03-21T15:02:09.743Z,6.10
2019-03-21T15:04:37.009Z,6.17
2019-03-21T15:07:05.554Z,6.37
2019-03-21T15:09:34.173Z,5.63
2019-03-21T15:12:01.670Z,6.03
2019-03-21T15:14:32.134Z,6.33
2019-03-21T15:16:59.564Z,6.77
2019-03-21T15:19:26.900Z,6.23
2019-03-21T15:21:56.754Z,7.10
2019-03-21T15:24:26.076Z,6.13
2019-03-21T15:26:53.348Z,6.00
2019-03-21T15:29:21.152Z,7.20
2019-03-21T15:31:48.842Z,6.00
2019-03-21T15:34:17.018Z,6.07
2019-03-21T15:36:47.275Z,6.63
2019-03-21T15:39:14.724Z,6.47
2019-03-21T15:41:41.997Z,13.57
2019-03-21T15:44:09.313Z,5.80
2019-03-21T15:46:37.182Z,8.30
2019-03-21T15:49:04.671Z,6.20
2019-03-21T15:51:32.196Z,6.40
2019-03-21T15:53:59.506Z,6.20
2019-03-21T15:56:26.780Z,5.70
2019-03-21T15:58:54.377Z,6.00
2019-03-21T16:01:21.834Z,5.80
2019-03-21T16:03:49.227Z,5.80
2019-03-21T16:06:16.793Z,5.67
2019-03-21T16:08:44.121Z,7.90
2019-03-21T16:11:12.506Z,5.60
2019-03-21T16:13:39.992Z,5.80
2019-03-21T16:16:07.559Z,5.93
2019-03-21T16:18:35.039Z,4.97
2019-03-21T16:21:02.726Z,4.83
2019-03-21T16:23:30.324Z,5.20
2019-03-21T16:25:58.684Z,5.13
2019-03-21T16:28:26.430Z,5.57
2019-03-21T16:30:54.114Z,4.87
2019-03-21T16:33:21.546Z,4.70
2019-03-21T16:35:49.228Z,8.83
2019-03-21T16:38:16.548Z,6.37
2019-03-21T16:40:43.883Z,4.73
2019-03-21T16:43:16.077Z,6.00
2019-03-21T16:45:43.537Z,5.53
2019-03-21T16:48:10.894Z,5.40
2019-03-21T16:50:38.299Z,7.57
2019-03-21T16:53:09.108Z,14.20
2019-03-21T16:55:36.765Z,5.43
2019-03-21T16:58:04.156Z,4.90
2019-03-21T17:00:31.547Z,4.83
2019-03-21T17:02:58.830Z,5.40
2019-03-21T17:05:26.106Z,5.10
2019-03-21T17:07:55.643Z,5.40
2019-03-21T17:10:23.978Z,5.33
2019-03-21T17:12:51.342Z,4.70
2019-03-21T17:15:18.794Z,5.30
2019-03-21T17:17:46.024Z,5.40
2019-03-21T17:20:14.423Z,5.37
2019-03-21T17:22:41.869Z,5.50
2019-03-21T17:25:09.188Z,6.30
2019-03-21T17:27:36.671Z,5.13
2019-03-21T17:30:05.147Z,6.03
2019-03-21T17:32:32.696Z,5.43
2019-03-21T17:35:00.544Z,6.07
2019-03-21T17:37:27.888Z,6.90
2019-03-21T17:39:55.609Z,6.50
2019-03-21T17:42:23.326Z,35.33
2019-03-21T17:44:50.721Z,14.00
2019-03-21T17:47:18.169Z,11.40
2019-03-21T17:49:45.699Z,6.87
2019-03-21T17:52:13.361Z,6.67
2019-03-21T17:54:41.891Z,6.27
2019-03-21T17:57:09.747Z,6.63
2019-03-21T17:59:40.456Z,6.40
2019-03-21T18:02:07.970Z,7.00
2019-03-21T18:04:35.888Z,6.70
2019-03-21T18:07:03.488Z,7.17
2019-03-21T18:09:31.133Z,6.80
2019-03-21T18:11:58.386Z,6.73
2019-03-21T18:14:28.596Z,6.60
2019-03-21T18:16:55.909Z,8.90
2019-03-21T18:19:26.260Z,8.37
2019-03-21T18:21:53.911Z,8.00
2019-03-21T18:24:27.302Z,7.33
2019-03-21T18:26:59.770Z,7.17
2019-03-21T18:29:29.492Z,7.17
2019-03-21T18:31:56.767Z,9.37
2019-03-21T18:34:24.275Z,11.30
2019-03-21T18:36:51.749Z,10.10
2019-03-21T18:39:19.494Z,9.57
2019-03-21T18:41:46.951Z,9.53
2019-03-21T18:44:14.278Z,9.03
2019-03-21T18:46:41.784Z,7.00
2019-03-21T18:49:09.157Z,6.47
2019-03-21T18:51:36.471Z,5.30
2019-03-21T18:54:03.735Z,4.60
2019-03-21T18:56:30.995Z,4.57
2019-03-21T18:58:58.373Z,4.13
2019-03-21T19:01:25.797Z,4.37
2019-03-21T19:03:55.667Z,4.30
2019-03-21T19:06:22.963Z,4.30
2019-03-21T19:08:50.249Z,4.10
2019-03-21T19:11:18.107Z,3.50
2019-03-21T19:13:45.559Z,3.77
2019-03-21T19:16:12.981Z,4.50
2019-03-21T19:18:42.487Z,6.77
2019-03-21T19:21:09.811Z,8.17
2019-03-21T19:23:37.454Z,11.77
2019-03-21T19:26:05.222Z,8.43
2019-03-21T19:28:32.757Z,4.50
2019-03-21T19:31:00.100Z,3.47
2019-03-21T19:33:29.526Z,3.80
2019-03-21T19:35:57.137Z,2.93
2019-03-21T19:38:29.122Z,3.20
2019-03-21T19:40:58.481Z,2.60
2019-03-21T19:43:30.848Z,2.60
2019-03-21T19:45:58.075Z,3.07
2019-03-21T19:48:27.956Z,3.20
2019-03-21T19:50:55.225Z,2.83
2019-03-21T19:53:22.539Z,2.80
2019-03-21T19:55:54.789Z,2.67
2019-03-21T19:58:22.136Z,2.90
2019-03-21T20:00:49.426Z,2.90
2019-03-21T20:03:16.774Z,2.90
2019-03-21T20:05:44.274Z,3.00
2019-03-21T20:08:11.911Z,3.10
2019-03-21T20:10:40.230Z,3.73
2019-03-21T20:13:10.358Z,3.80
2019-03-21T20:15:41.697Z,2.97
2019-03-21T20:18:10.200Z,2.53
2019-03-21T20:20:37.907Z,2.60
2019-03-21T20:23:05.409Z,3.00
2019-03-21T20:25:42.358Z,4.70
2019-03-21T20:28:02.048Z,2.90
2019-03-21T20:30:29.438Z,3.07
2019-03-21T20:32:58.188Z,2.50
2019-03-21T20:35:31.475Z,2.03
2019-03-21T20:38:05.464Z,2.47
2019-03-21T20:40:33.200Z,3.23
2019-03-21T20:43:03.016Z,2.30
2019-03-21T20:45:31.111Z,2.57
2019-03-21T20:47:58.579Z,2.50
2019-03-21T20:50:26.252Z,2.43
2019-03-21T20:52:58.426Z,2.77
2019-03-21T20:55:26.270Z,2.70
2019-03-21T20:57:54.408Z,2.73
2019-03-21T21:00:25.518Z,2.30
2019-03-21T21:02:53.276Z,2.03
2019-03-21T21:05:22.908Z,2.23
2019-03-21T21:07:49.885Z,2.20
2019-03-21T21:10:19.938Z,2.27
2019-03-21T21:12:47.228Z,2.77
2019-03-21T21:15:14.529Z,2.60
2019-03-21T21:17:43.103Z,2.40
2019-03-21T21:20:10.834Z,2.40
2019-03-21T21:22:38.778Z,2.70
2019-03-21T21:25:06.434Z,3.00
2019-03-21T21:27:33.837Z,3.00
2019-03-21T21:30:01.224Z,2.63
2019-03-21T21:32:28.534Z,2.60
2019-03-21T21:34:55.922Z,2.60
2019-03-21T21:37:23.649Z,2.23
2019-03-21T21:39:51.090Z,3.10
2019-03-21T21:42:18.672Z,2.60
2019-03-21T21:44:45.922Z,3.37
2019-03-21T21:47:16.424Z,2.47
2019-03-21T21:49:43.932Z,2.63
2019-03-21T21:52:11.214Z,2.57
2019-03-21T21:54:38.507Z,2.33
2019-03-21T21:57:06.002Z,2.30
2019-03-21T21:59:33.316Z,2.30
2019-03-21T22:02:00.996Z,2.60
2019-03-21T22:04:28.402Z,2.50
2019-03-21T22:06:55.692Z,2.43
2019-03-21T22:09:23.328Z,2.70
2019-03-21T22:11:50.636Z,2.30
2019-03-21T22:14:17.902Z,2.40
2019-03-21T22:16:48.111Z,2.63
2019-03-21T22:19:15.624Z,2.60
2019-03-21T22:21:42.997Z,2.67
2019-03-21T22:24:13.607Z,2.90
2019-03-21T22:26:40.204Z,3.00
2019-03-21T22:29:07.536Z,3.00
2019-03-21T22:31:37.827Z,2.47
2019-03-21T22:34:05.155Z,2.63
2019-03-21T22:36:32.542Z,2.43
2019-03-21T22:38:59.930Z,2.60
2019-03-21T22:41:27.321Z,2.93
2019-03-21T22:43:54.857Z,3.10
2019-03-21T22:46:24.028Z,2.70
2019-03-21T22:48:51.330Z,2.50
2019-03-21T22:51:18.641Z,2.80
2019-03-21T22:53:46.068Z,2.67
2019-03-21T22:56:13.336Z,2.77
2019-03-21T22:58:40.730Z,3.47
2019-03-21T23:01:08.108Z,2.60
2019-03-21T23:03:35.430Z,2.80
2019-03-21T23:06:02.730Z,2.97
2019-03-21T23:08:31.708Z,3.00
2019-03-21T23:10:59.334Z,3.00
2019-03-21T23:13:26.774Z,2.80
2019-03-21T23:15:54.290Z,3.27
2019-03-21T23:18:21.578Z,2.63
2019-03-21T23:20:48.993Z,2.80
2019-03-21T23:23:16.281Z,2.80
2019-03-21T23:25:44.109Z,3.23
2019-03-21T23:28:13.362Z,2.67
2019-03-21T23:30:40.654Z,3.00
2019-03-21T23:33:08.031Z,2.83
2019-03-21T23:35:35.293Z,3.13
2019-03-21T23:38:02.561Z,4.03
2019-03-21T23:40:31.555Z,3.87
2019-03-21T23:42:58.825Z,3.30
2019-03-21T23:45:26.088Z,3.33
2019-03-21T23:47:53.323Z,3.70
2019-03-21T23:50:21.403Z,4.27
2019-03-21T23:52:49.450Z,4.20
2019-03-21T23:55:16.837Z,4.20
2019-03-21T23:57:44.133Z,3.73
